createdAt,value
2022-09-27T00:00:48.866Z,75100.19
2022-09-27T00:03:15.933Z,75100.19
2022-09-27T00:05:43.196Z,75100.19
2022-09-27T00:08:10.272Z,75100.19
2022-09-27T00:10:37.746Z,75091.97
2022-09-27T00:13:04.881Z,75085.78
2022-09-27T00:15:32.534Z,75079.63
2022-09-27T00:17:59.662Z,75083.75
2022-09-27T00:20:27.107Z,75075.53
2022-09-27T00:22:54.151Z,75083.75
2022-09-27T00:25:22.250Z,75083.75
2022-09-27T00:27:51.069Z,75075.53
2022-09-27T00:30:18.131Z,75075.53
2022-09-27T00:32:45.451Z,75075.53
2022-09-27T00:35:12.651Z,75067.28
2022-09-27T00:37:39.750Z,75073.47
2022-09-27T00:40:07.240Z,75071.41
2022-09-27T00:42:34.466Z,75081.69
2022-09-27T00:45:02.906Z,75087.84
2022-09-27T00:47:30.031Z,75079.63
2022-09-27T00:49:58.526Z,75075.53
2022-09-27T00:52:33.729Z,75079.63
2022-09-27T00:55:03.664Z,75073.47
2022-09-27T00:57:31.854Z,75075.53
2022-09-27T01:00:03.457Z,75075.53
2022-09-27T01:02:30.821Z,75079.63
2022-09-27T01:04:58.314Z,75079.63
2022-09-27T01:07:25.365Z,75083.75
2022-09-27T01:09:52.540Z,75079.63
2022-09-27T01:12:38.189Z,75079.63
2022-09-27T01:15:18.961Z,75083.75
2022-09-27T01:17:49.027Z,75087.84
2022-09-27T01:20:16.111Z,75083.75
2022-09-27T01:22:52.554Z,75081.69
2022-09-27T01:25:49.343Z,75083.75
2022-09-27T01:28:16.363Z,75079.63
2022-09-27T01:31:02.636Z,75075.53
2022-09-27T01:33:30.189Z,75079.63
2022-09-27T01:36:09.176Z,75077.56
2022-09-27T01:38:56.419Z,75085.78
2022-09-27T01:41:23.651Z,75087.84
2022-09-27T01:43:55.761Z,75087.84
2022-09-27T01:46:26.625Z,75083.75
2022-09-27T01:48:53.923Z,75094.00
2022-09-27T01:51:31.091Z,75096.06
2022-09-27T01:53:59.012Z,75091.97
2022-09-27T01:56:39.838Z,75096.06
2022-09-27T01:59:11.260Z,75100.19
2022-09-27T02:01:38.879Z,75091.97
2022-09-27T02:04:06.602Z,75089.91
2022-09-27T02:06:35.098Z,75079.63
2022-09-27T02:09:21.018Z,75077.56
2022-09-27T02:11:55.960Z,75075.53
2022-09-27T02:14:25.376Z,75073.47
2022-09-27T02:16:53.826Z,75067.28
2022-09-27T02:19:33.191Z,75075.53
2022-09-27T02:22:15.276Z,75071.41
2022-09-27T02:24:47.434Z,75067.28
2022-09-27T02:27:18.478Z,75067.28
2022-09-27T02:29:47.402Z,75067.28
2022-09-27T02:32:14.458Z,75050.88
2022-09-27T02:34:41.731Z,75054.97
2022-09-27T02:37:08.821Z,75054.97
2022-09-27T02:39:37.120Z,75050.88
2022-09-27T02:42:04.639Z,75050.88
2022-09-27T02:44:32.603Z,75054.97
2022-09-27T02:47:08.766Z,75050.88
2022-09-27T02:49:54.457Z,75052.91
2022-09-27T02:52:24.304Z,75042.66
2022-09-27T02:55:06.509Z,75042.66
2022-09-27T02:57:33.584Z,75042.66
2022-09-27T03:00:05.489Z,75032.38
2022-09-27T03:02:33.803Z,75030.31
2022-09-27T03:05:00.961Z,75028.25
2022-09-27T03:07:28.053Z,75030.31
2022-09-27T03:09:55.746Z,75026.19
2022-09-27T03:12:26.088Z,75022.09
2022-09-27T03:14:54.237Z,75017.97
2022-09-27T03:17:21.438Z,75017.97
2022-09-27T03:19:48.573Z,75009.75
2022-09-27T03:22:15.666Z,75001.53
2022-09-27T03:24:43.073Z,74999.50
2022-09-27T03:27:10.307Z,74997.44
2022-09-27T03:29:37.397Z,74991.28
2022-09-27T03:32:04.542Z,74995.38
2022-09-27T03:34:31.653Z,74993.31
2022-09-27T03:36:58.970Z,74999.50
2022-09-27T03:39:26.018Z,74997.44
2022-09-27T03:41:53.238Z,75001.53
2022-09-27T03:44:20.351Z,75005.66
2022-09-27T03:46:47.397Z,75001.53
2022-09-27T03:49:14.492Z,74999.50
2022-09-27T03:51:42.562Z,74993.31
2022-09-27T03:54:09.876Z,75001.53
2022-09-27T03:56:36.914Z,74995.38
2022-09-27T03:59:04.027Z,74997.44
2022-09-27T04:01:31.318Z,74997.44
2022-09-27T04:03:58.430Z,74991.28
2022-09-27T04:06:27.139Z,74985.09
2022-09-27T04:08:54.252Z,74981.00
2022-09-27T04:11:23.782Z,74981.00
2022-09-27T04:13:50.911Z,74970.72
2022-09-27T04:16:18.894Z,74968.66
2022-09-27T04:18:46.771Z,74968.66
2022-09-27T04:21:14.012Z,74960.44
2022-09-27T04:23:41.069Z,74960.44
2022-09-27T04:26:08.178Z,74952.22
2022-09-27T04:28:35.483Z,74948.13
2022-09-27T04:31:05.263Z,74950.19
2022-09-27T04:33:32.687Z,74948.13
2022-09-27T04:36:18.730Z,74944.00
2022-09-27T04:38:46.075Z,74948.13
2022-09-27T04:41:13.721Z,74948.13
2022-09-27T04:43:41.681Z,74944.00
2022-09-27T04:46:08.842Z,74946.06
2022-09-27T04:48:36.143Z,74931.69
2022-09-27T04:51:03.246Z,74929.63
2022-09-27T04:53:30.353Z,74931.69
2022-09-27T04:55:57.526Z,74919.34
2022-09-27T04:58:24.669Z,74923.47
2022-09-27T05:00:55.935Z,74927.56
2022-09-27T05:03:23.131Z,74927.56
2022-09-27T05:05:50.213Z,74915.25
2022-09-27T05:08:17.867Z,74911.13
2022-09-27T05:10:44.994Z,74911.13
2022-09-27T05:13:13.186Z,74911.13
2022-09-27T05:15:41.311Z,74904.97
2022-09-27T05:18:09.819Z,74898.81
2022-09-27T05:20:37.709Z,74894.69
2022-09-27T05:23:04.837Z,74890.59
2022-09-27T05:25:32.463Z,74886.47
2022-09-27T05:27:59.614Z,74878.25
2022-09-27T05:30:27.561Z,74878.25
2022-09-27T05:32:55.351Z,74886.47
2022-09-27T05:35:22.679Z,74874.16
2022-09-27T05:37:56.817Z,74882.38
2022-09-27T05:40:40.460Z,74882.38
2022-09-27T05:43:08.174Z,74894.69
2022-09-27T05:45:35.811Z,74890.59
2022-09-27T05:48:03.276Z,74882.38
2022-09-27T05:50:30.803Z,74880.31
2022-09-27T05:52:58.003Z,74878.25
2022-09-27T05:55:25.081Z,74882.38
2022-09-27T05:57:57.393Z,74872.09
2022-09-27T06:00:25.860Z,74872.09
2022-09-27T06:02:53.678Z,74859.78
2022-09-27T06:05:20.939Z,74861.81
2022-09-27T06:07:49.659Z,74857.72
2022-09-27T06:10:17.412Z,74861.81
2022-09-27T06:12:45.092Z,74851.56
2022-09-27T06:15:12.739Z,74841.28
2022-09-27T06:17:40.122Z,74828.94
2022-09-27T06:20:08.958Z,74824.84
2022-09-27T06:22:36.901Z,74824.84
2022-09-27T06:25:04.441Z,74828.94
2022-09-27T06:27:31.858Z,74820.75
2022-09-27T06:29:58.957Z,74812.53
2022-09-27T06:32:26.194Z,74816.63
2022-09-27T06:34:53.609Z,74814.56
2022-09-27T06:37:20.724Z,74822.78
2022-09-27T06:39:49.204Z,74820.75
2022-09-27T06:42:18.726Z,74816.63
2022-09-27T06:44:50.325Z,74804.31
2022-09-27T06:47:17.764Z,74804.31
2022-09-27T06:49:45.032Z,74791.97
2022-09-27T06:52:12.163Z,74796.09
2022-09-27T06:54:39.242Z,74794.03
2022-09-27T06:57:06.395Z,74783.75
2022-09-27T06:59:52.215Z,74765.25
2022-09-27T07:02:19.359Z,74759.09
2022-09-27T07:04:46.556Z,74755.00
2022-09-27T07:07:13.939Z,74742.66
2022-09-27T07:09:42.368Z,74759.09
2022-09-27T07:12:10.420Z,74767.31
2022-09-27T07:14:37.492Z,74759.09
2022-09-27T07:17:04.634Z,74767.31
2022-09-27T07:19:31.787Z,74763.22
2022-09-27T07:21:58.867Z,74767.31
2022-09-27T07:24:25.996Z,74771.44
2022-09-27T07:26:53.752Z,74761.16
2022-09-27T07:29:20.957Z,74750.88
2022-09-27T07:31:48.169Z,74746.78
2022-09-27T07:34:18.324Z,74738.56
2022-09-27T07:36:45.506Z,74734.44
2022-09-27T07:39:12.676Z,74718.00
2022-09-27T07:41:40.478Z,74709.78
2022-09-27T07:44:08.260Z,74697.47
2022-09-27T07:46:35.805Z,74699.50
2022-09-27T07:49:03.247Z,74685.13
2022-09-27T07:51:30.817Z,74693.34
2022-09-27T07:53:58.210Z,74676.91
2022-09-27T07:56:25.683Z,74689.25
2022-09-27T07:58:53.411Z,74697.47
2022-09-27T08:01:20.904Z,74693.34
2022-09-27T08:03:49.240Z,74689.25
2022-09-27T08:06:18.362Z,74672.81
2022-09-27T08:08:47.976Z,74681.03
2022-09-27T08:11:19.644Z,74664.59
2022-09-27T08:13:52.940Z,74678.97
2022-09-27T08:16:22.791Z,74672.81
2022-09-27T08:18:51.374Z,74656.38
2022-09-27T08:21:21.273Z,74642.00
2022-09-27T08:23:49.778Z,74635.81
2022-09-27T08:26:18.241Z,74623.50
2022-09-27T08:28:48.153Z,74594.75
2022-09-27T08:31:16.765Z,74594.75
2022-09-27T08:33:49.643Z,74615.28
2022-09-27T08:36:18.440Z,74623.50
2022-09-27T08:38:50.839Z,74625.56
2022-09-27T08:41:25.638Z,74627.59
2022-09-27T08:43:55.771Z,74621.44
2022-09-27T08:46:24.270Z,74621.44
2022-09-27T08:48:54.201Z,74611.16
2022-09-27T08:51:22.954Z,74623.50
2022-09-27T08:53:53.030Z,74617.34
2022-09-27T08:56:22.220Z,74617.34
2022-09-27T08:58:52.185Z,74615.28
2022-09-27T09:01:23.900Z,74619.38
2022-09-27T09:03:58.236Z,74623.50
2022-09-27T09:06:31.786Z,74619.38
2022-09-27T09:09:06.447Z,74629.66
2022-09-27T09:12:11.948Z,74627.59
2022-09-27T09:15:03.469Z,74633.78
2022-09-27T09:17:33.482Z,74637.88
2022-09-27T09:20:16.962Z,74627.59
2022-09-27T09:22:49.801Z,74619.38
2022-09-27T09:25:22.666Z,74613.22
2022-09-27T09:28:10.015Z,74615.28
2022-09-27T09:30:43.783Z,74607.06
2022-09-27T09:33:31.197Z,74590.63
2022-09-27T09:36:04.216Z,74576.25
2022-09-27T09:38:38.955Z,74568.03
2022-09-27T09:41:16.915Z,74565.97
2022-09-27T09:43:50.803Z,74574.19
2022-09-27T09:46:21.563Z,74555.69
2022-09-27T09:48:56.870Z,74553.66
2022-09-27T09:51:27.285Z,74553.66
2022-09-27T09:53:57.422Z,74529.00
2022-09-27T09:56:30.578Z,74531.03
2022-09-27T09:59:03.204Z,74520.78
2022-09-27T10:01:44.887Z,74529.00
2022-09-27T10:04:16.657Z,74541.31
2022-09-27T10:06:45.762Z,74553.66
2022-09-27T10:09:17.391Z,74545.44
2022-09-27T10:11:46.665Z,74561.88
2022-09-27T10:14:16.057Z,74588.56
2022-09-27T10:16:47.628Z,74582.41
2022-09-27T10:19:32.492Z,74586.53
2022-09-27T10:22:06.944Z,74594.75
2022-09-27T10:24:43.556Z,74578.31
2022-09-27T10:27:12.130Z,74582.41
2022-09-27T10:29:41.712Z,74586.53
2022-09-27T10:32:20.015Z,74584.47
2022-09-27T10:34:48.531Z,74598.84
2022-09-27T10:37:18.163Z,74598.84
2022-09-27T10:39:47.111Z,74598.84
2022-09-27T10:42:35.222Z,74590.63
2022-09-27T10:45:22.545Z,74602.94
2022-09-27T10:47:51.300Z,74592.69
2022-09-27T10:50:45.992Z,74590.63
2022-09-27T10:53:15.890Z,74572.13
2022-09-27T10:55:44.393Z,74557.75
2022-09-27T10:58:20.709Z,74537.22
2022-09-27T11:00:59.376Z,74529.00
2022-09-27T11:03:29.584Z,74500.22
2022-09-27T11:05:59.909Z,74487.91
2022-09-27T11:08:31.615Z,74477.63
2022-09-27T11:11:08.017Z,74471.47
2022-09-27T11:13:38.461Z,74459.16
2022-09-27T11:16:18.945Z,74461.19
2022-09-27T11:18:47.792Z,74450.94
2022-09-27T11:21:23.154Z,74455.03
2022-09-27T11:24:04.855Z,74457.09
2022-09-27T11:26:37.464Z,74455.03
2022-09-27T11:29:14.978Z,74463.25
2022-09-27T11:32:03.049Z,74459.16
2022-09-27T11:34:34.860Z,74450.94
2022-09-27T11:37:07.118Z,74459.16
2022-09-27T11:39:45.084Z,74467.34
2022-09-27T11:42:14.792Z,74455.03
2022-09-27T11:45:45.404Z,74461.19
2022-09-27T11:48:02.174Z,74467.34
2022-09-27T11:50:39.675Z,74459.16
2022-09-27T11:53:13.966Z,74467.34
2022-09-27T11:55:47.857Z,74485.84
2022-09-27T11:58:27.753Z,74483.78
2022-09-27T12:01:00.046Z,74487.91
2022-09-27T12:03:37.732Z,74512.56
2022-09-27T12:06:23.462Z,74520.78
2022-09-27T12:09:09.051Z,74533.09
2022-09-27T12:11:40.114Z,74524.88
2022-09-27T12:14:27.340Z,74533.09
2022-09-27T12:16:55.841Z,74537.22
2022-09-27T12:19:31.151Z,74547.47
2022-09-27T12:22:00.326Z,74543.38
2022-09-27T12:24:30.201Z,74535.16
2022-09-27T12:27:00.722Z,74533.09
2022-09-27T12:29:34.585Z,74524.88
2022-09-27T12:32:06.734Z,74522.84
2022-09-27T12:34:39.906Z,74518.72
2022-09-27T12:37:13.614Z,74529.00
2022-09-27T12:39:43.973Z,74529.00
2022-09-27T12:42:21.170Z,74529.00
2022-09-27T12:44:50.896Z,74512.56
2022-09-27T12:47:30.688Z,74520.78
2022-09-27T12:50:08.558Z,74516.66
2022-09-27T12:52:38.126Z,74516.66
2022-09-27T12:55:10.584Z,74516.66
2022-09-27T12:57:50.022Z,74516.66
2022-09-27T13:00:23.179Z,74512.56
2022-09-27T13:03:14.667Z,74514.63
2022-09-27T13:05:56.258Z,74512.56
2022-09-27T13:08:44.080Z,74522.84
2022-09-27T13:11:15.859Z,74500.22
2022-09-27T13:13:44.146Z,74516.66
2022-09-27T13:16:12.894Z,74529.00
2022-09-27T13:18:52.433Z,74526.94
2022-09-27T13:21:39.371Z,74533.09
2022-09-27T13:24:27.944Z,74541.31
2022-09-27T13:26:57.101Z,74520.78
2022-09-27T13:29:26.873Z,74537.22
2022-09-27T13:31:55.411Z,74547.47
2022-09-27T13:34:42.066Z,74529.00
2022-09-27T13:37:29.063Z,74529.00
2022-09-27T13:40:16.594Z,74533.09
2022-09-27T13:42:47.674Z,74545.44
2022-09-27T13:45:21.160Z,74547.47
2022-09-27T13:47:49.877Z,74561.88
2022-09-27T13:50:29.395Z,74570.09
2022-09-27T13:53:02.771Z,74572.13
2022-09-27T13:55:46.871Z,74570.09
2022-09-27T13:58:27.825Z,74561.88
2022-09-27T14:00:57.024Z,74557.75
2022-09-27T14:03:28.973Z,74590.63
2022-09-27T14:05:58.653Z,74590.63
2022-09-27T14:08:29.259Z,74594.75
2022-09-27T14:10:58.748Z,74596.78
2022-09-27T14:13:27.371Z,74598.84
2022-09-27T14:15:57.149Z,74596.78
2022-09-27T14:18:25.766Z,74607.06
2022-09-27T14:20:55.424Z,74600.91
2022-09-27T14:23:24.532Z,74600.91
2022-09-27T14:25:54.000Z,74590.63
2022-09-27T14:28:25.614Z,74598.84
2022-09-27T14:31:06.092Z,74611.16
2022-09-27T14:33:34.483Z,74609.13
2022-09-27T14:36:23.672Z,74602.94
2022-09-27T14:38:54.314Z,74578.31
2022-09-27T14:41:21.400Z,74582.41
2022-09-27T14:43:52.227Z,74576.25
2022-09-27T14:46:27.466Z,74572.13
2022-09-27T14:48:55.525Z,74574.19
2022-09-27T14:51:30.600Z,74568.03
2022-09-27T14:54:00.631Z,74561.88
2022-09-27T14:56:28.660Z,74565.97
2022-09-27T14:59:02.461Z,74553.66
2022-09-27T15:01:30.452Z,74557.75
2022-09-27T15:04:02.812Z,74553.66
2022-09-27T15:06:30.330Z,74537.22
2022-09-27T15:08:58.165Z,74545.44
2022-09-27T15:11:26.416Z,74539.25
2022-09-27T15:13:55.110Z,74541.31
2022-09-27T15:16:22.767Z,74537.22
2022-09-27T15:19:03.159Z,74535.16
2022-09-27T15:21:31.583Z,74549.53
2022-09-27T15:23:59.352Z,74545.44
2022-09-27T15:26:27.290Z,74545.44
2022-09-27T15:28:54.429Z,74551.59
2022-09-27T15:31:31.586Z,74553.66
2022-09-27T15:33:59.165Z,74574.19
2022-09-27T15:36:45.227Z,74561.88
2022-09-27T15:39:12.494Z,74553.66
2022-09-27T15:42:06.268Z,74545.44
2022-09-27T15:44:37.999Z,74549.53
2022-09-27T15:47:05.081Z,74561.88
2022-09-27T15:49:33.737Z,74555.69
2022-09-27T15:52:01.553Z,74553.66
2022-09-27T15:54:34.705Z,74553.66
2022-09-27T15:57:04.574Z,74572.13
2022-09-27T15:59:33.881Z,74574.19
2022-09-27T16:02:07.522Z,74590.63
2022-09-27T16:04:36.145Z,74565.97
2022-09-27T16:07:03.996Z,74561.88
2022-09-27T16:09:31.607Z,74557.75
2022-09-27T16:11:58.729Z,74559.81
2022-09-27T16:14:25.795Z,74555.69
2022-09-27T16:16:53.139Z,74565.97
2022-09-27T16:19:20.364Z,74584.47
2022-09-27T16:21:48.462Z,74580.34
2022-09-27T16:24:20.224Z,74565.97
2022-09-27T16:26:50.098Z,74570.09
2022-09-27T16:29:17.288Z,74596.78
2022-09-27T16:31:45.773Z,74598.84
2022-09-27T16:34:13.249Z,74594.75
2022-09-27T16:36:40.763Z,74590.63
2022-09-27T16:39:08.133Z,74586.53
2022-09-27T16:41:35.863Z,74574.19
2022-09-27T16:44:06.816Z,74565.97
2022-09-27T16:46:35.150Z,74570.09
2022-09-27T16:49:02.525Z,74578.31
2022-09-27T16:51:48.793Z,74565.97
2022-09-27T16:54:17.596Z,74561.88
2022-09-27T16:56:45.121Z,74561.88
2022-09-27T16:59:12.259Z,74565.97
2022-09-27T17:01:39.507Z,74555.69
2022-09-27T17:04:07.319Z,74549.53
2022-09-27T17:06:34.580Z,74570.09
2022-09-27T17:09:02.168Z,74572.13
2022-09-27T17:11:29.398Z,74598.84
2022-09-27T17:13:56.502Z,74607.06
2022-09-27T17:16:23.792Z,74615.28
2022-09-27T17:18:51.785Z,74621.44
2022-09-27T17:21:19.179Z,74633.78
2022-09-27T17:23:46.886Z,74635.81
2022-09-27T17:26:15.210Z,74648.16
2022-09-27T17:28:42.785Z,74652.25
2022-09-27T17:31:10.844Z,74660.47
2022-09-27T17:33:43.353Z,74652.25
2022-09-27T17:36:12.211Z,74660.47
2022-09-27T17:38:39.791Z,74656.38
2022-09-27T17:41:08.616Z,74672.81
2022-09-27T17:43:37.677Z,74666.66
2022-09-27T17:46:05.543Z,74670.75
2022-09-27T17:48:51.833Z,74668.69
2022-09-27T17:51:18.902Z,74676.91
2022-09-27T17:53:46.003Z,74681.03
2022-09-27T17:56:14.675Z,74676.91
2022-09-27T17:58:48.385Z,74668.69
2022-09-27T18:01:15.591Z,74672.81
2022-09-27T18:03:43.158Z,74672.81
2022-09-27T18:06:12.625Z,74666.66
2022-09-27T18:08:40.545Z,74668.69
2022-09-27T18:11:11.897Z,74668.69
2022-09-27T18:13:42.796Z,74662.53
2022-09-27T18:16:11.220Z,74668.69
2022-09-27T18:18:38.612Z,74670.75
2022-09-27T18:21:06.463Z,74668.69
2022-09-27T18:23:34.196Z,74672.81
2022-09-27T18:26:03.314Z,74676.91
2022-09-27T18:28:31.084Z,74668.69
2022-09-27T18:31:02.635Z,74681.03
2022-09-27T18:33:30.055Z,74672.81
2022-09-27T18:36:01.176Z,74672.81
2022-09-27T18:38:28.310Z,74681.03
2022-09-27T18:40:57.976Z,74691.28
2022-09-27T18:43:25.804Z,74676.91
2022-09-27T18:45:52.894Z,74676.91
2022-09-27T18:48:20.127Z,74666.66
2022-09-27T18:50:47.207Z,74660.47
2022-09-27T18:53:15.069Z,74664.59
2022-09-27T18:55:42.187Z,74656.38
2022-09-27T18:58:14.170Z,74654.31
2022-09-27T19:00:41.376Z,74646.09
2022-09-27T19:03:09.446Z,74631.72
2022-09-27T19:05:37.049Z,74627.59
2022-09-27T19:08:04.226Z,74629.66
2022-09-27T19:10:33.465Z,74631.72
2022-09-27T19:13:01.166Z,74623.50
2022-09-27T19:15:28.518Z,74623.50
2022-09-27T19:17:56.429Z,74615.28
2022-09-27T19:20:24.467Z,74615.28
2022-09-27T19:22:51.559Z,74611.16
2022-09-27T19:25:18.772Z,74600.91
2022-09-27T19:27:46.369Z,74605.00
2022-09-27T19:30:13.848Z,74602.94
2022-09-27T19:32:41.499Z,74594.75
2022-09-27T19:35:09.447Z,74582.41
2022-09-27T19:37:36.717Z,74568.03
2022-09-27T19:40:04.380Z,74570.09
2022-09-27T19:42:31.530Z,74561.88
2022-09-27T19:44:59.010Z,74561.88
2022-09-27T19:47:26.101Z,74561.88
2022-09-27T19:49:53.210Z,74553.66
2022-09-27T19:52:20.271Z,74545.44
2022-09-27T19:54:47.317Z,74541.31
2022-09-27T19:57:14.781Z,74537.22
2022-09-27T19:59:43.202Z,74537.22
2022-09-27T20:02:10.727Z,74537.22
2022-09-27T20:04:38.920Z,74529.00
2022-09-27T20:07:06.338Z,74533.09
2022-09-27T20:09:33.509Z,74529.00
2022-09-27T20:12:00.863Z,74533.09
2022-09-27T20:14:28.081Z,74529.00
2022-09-27T20:16:55.349Z,74522.84
2022-09-27T20:19:22.402Z,74524.88
2022-09-27T20:21:49.976Z,74516.66
2022-09-27T20:24:17.119Z,74516.66
2022-09-27T20:26:44.868Z,74512.56
2022-09-27T20:29:12.131Z,74512.56
2022-09-27T20:32:01.501Z,74518.72
2022-09-27T20:34:29.868Z,74520.78
2022-09-27T20:36:57.891Z,74516.66
2022-09-27T20:39:25.678Z,74508.44
2022-09-27T20:41:52.727Z,74504.34
2022-09-27T20:44:20.165Z,74504.34
2022-09-27T20:46:47.356Z,74508.44
2022-09-27T20:49:16.013Z,74512.56
2022-09-27T20:51:43.476Z,74504.34
2022-09-27T20:54:11.347Z,74516.66
2022-09-27T20:56:42.287Z,74520.78
2022-09-27T20:59:15.016Z,74520.78
2022-09-27T21:01:46.166Z,74520.78
2022-09-27T21:04:14.639Z,74520.78
2022-09-27T21:06:42.007Z,74524.88
2022-09-27T21:09:09.329Z,74516.66
2022-09-27T21:11:36.485Z,74520.78
2022-09-27T21:14:03.704Z,74524.88
2022-09-27T21:16:33.951Z,74524.88
2022-09-27T21:19:01.543Z,74520.78
2022-09-27T21:21:28.987Z,74512.56
2022-09-27T21:24:00.221Z,74502.28
2022-09-27T21:26:31.375Z,74494.06
2022-09-27T21:28:59.255Z,74496.13
2022-09-27T21:31:26.446Z,74492.00
2022-09-27T21:33:55.130Z,74492.00
2022-09-27T21:36:22.700Z,74487.91
2022-09-27T21:38:49.818Z,74477.63
2022-09-27T21:41:17.014Z,74475.56
2022-09-27T21:43:44.703Z,74479.69
2022-09-27T21:46:12.882Z,74479.69
2022-09-27T21:48:41.628Z,74487.91
2022-09-27T21:51:09.951Z,74492.00
2022-09-27T21:53:38.081Z,74492.00
2022-09-27T21:56:05.485Z,74496.13
2022-09-27T21:58:33.721Z,74496.13
2022-09-27T22:01:33.677Z,74504.34
2022-09-27T22:04:01.035Z,74520.78
2022-09-27T22:06:29.147Z,74518.72
2022-09-27T22:08:56.467Z,74512.56
2022-09-27T22:11:30.649Z,74520.78
2022-09-27T22:13:57.868Z,74512.56
2022-09-27T22:16:26.938Z,74498.19
2022-09-27T22:18:54.499Z,74498.19
2022-09-27T22:21:32.086Z,74500.22
2022-09-27T22:24:01.931Z,74506.41
2022-09-27T22:26:33.400Z,74494.06
2022-09-27T22:29:00.768Z,74485.84
2022-09-27T22:31:27.856Z,74479.69
2022-09-27T22:33:59.121Z,74479.69
2022-09-27T22:36:26.219Z,74467.34
2022-09-27T22:38:53.518Z,74471.47
2022-09-27T22:41:20.787Z,74463.25
2022-09-27T22:43:48.045Z,74475.56
2022-09-27T22:46:15.266Z,74483.78
2022-09-27T22:48:42.520Z,74475.56
2022-09-27T22:51:10.083Z,74475.56
2022-09-27T22:53:37.808Z,74475.56
2022-09-27T22:56:05.348Z,74473.53
2022-09-27T22:58:32.835Z,74471.47
2022-09-27T23:01:00.350Z,74459.16
2022-09-27T23:03:27.713Z,74457.09
2022-09-27T23:05:54.831Z,74448.88
2022-09-27T23:08:23.208Z,74455.03
2022-09-27T23:10:50.298Z,74455.03
2022-09-27T23:13:17.643Z,74455.03
2022-09-27T23:15:44.843Z,74442.72
2022-09-27T23:18:11.913Z,74430.38
2022-09-27T23:20:39.364Z,74430.38
2022-09-27T23:23:06.454Z,74418.06
2022-09-27T23:25:33.493Z,74416.00
2022-09-27T23:28:02.113Z,74409.84
2022-09-27T23:30:31.800Z,74407.78
2022-09-27T23:32:58.960Z,74409.84
2022-09-27T23:35:29.973Z,74401.63
2022-09-27T23:37:57.879Z,74401.63
2022-09-27T23:40:25.300Z,74401.63
2022-09-27T23:42:52.526Z,74393.41
2022-09-27T23:45:20.234Z,74393.41
2022-09-27T23:47:47.296Z,74389.28
2022-09-27T23:50:15.024Z,74389.28
2022-09-27T23:52:42.205Z,74387.25
2022-09-27T23:55:09.507Z,74385.19
2022-09-27T23:57:36.600Z,74387.25
